Tune, Denmark
Current Conditions -  °F | °C
As of 9:50 AM on Sunday 23 Nov 2014 (Local Time) from EKRK Reporting Station
Broken Clouds Broken Clouds  
Wind Chill: 37°   Ceiling: 4200
Heat Index: 45°   Visibility: 4mi
Dew Point: 41°   Wind: 20mph
Humidity: 87%   Direction: 150°SSE
Pressure: 30.21"   Gusts: NA
Location:  55.6°N, 12.18°E
Report Text: EKRK 230850Z AUTO 15017KT 7000NDV FEW012/// SCT016///BKN042/// 07/05 Q1023
Loading
Personal Weather Stations






























Interactive Weather Map New forecast layout! Learn more

10-Day Weather Forecast

Advertisements
Track Severe Weather on mobile